sensor_id;sensor_type;location;lat;lon;timestamp;temperature;humidity
10030;DHT22;5055;52.054;8.524;2022-12-24T00:01:36;10.80;97.00
10030;DHT22;5055;52.054;8.524;2022-12-24T00:04:05;10.80;97.00
10030;DHT22;5055;52.054;8.524;2022-12-24T00:06:34;10.80;97.00
10030;DHT22;5055;52.054;8.524;2022-12-24T00:09:03;10.80;97.00
10030;DHT22;5055;52.054;8.524;2022-12-24T00:11:31;10.80;97.00
10030;DHT22;5055;52.054;8.524;2022-12-24T00:14:00;10.80;97.00
10030;DHT22;5055;52.054;8.524;2022-12-24T00:16:30;10.80;97.00
10030;DHT22;5055;52.054;8.524;2022-12-24T00:18:59;10.80;97.00
10030;DHT22;5055;52.054;8.524;2022-12-24T00:21:27;10.80;97.00
10030;DHT22;5055;52.054;8.524;2022-12-24T00:23:56;10.70;97.00
10030;DHT22;5055;52.054;8.524;2022-12-24T00:26:24;10.70;97.00
10030;DHT22;5055;52.054;8.524;2022-12-24T00:28:53;10.60;97.00
10030;DHT22;5055;52.054;8.524;2022-12-24T00:31:21;10.60;97.00
10030;DHT22;5055;52.054;8.524;2022-12-24T00:33:52;10.60;97.00
10030;DHT22;5055;52.054;8.524;2022-12-24T00:36:21;10.60;97.00
10030;DHT22;5055;52.054;8.524;2022-12-24T00:38:49;10.60;97.00
10030;DHT22;5055;52.054;8.524;2022-12-24T00:41:18;10.50;97.00
10030;DHT22;5055;52.054;8.524;2022-12-24T00:43:56;10.50;97.00
10030;DHT22;5055;52.054;8.524;2022-12-24T00:46:27;10.50;97.00
10030;DHT22;5055;52.054;8.524;2022-12-24T00:48:58;10.50;97.00
10030;DHT22;5055;52.054;8.524;2022-12-24T00:51:27;10.50;97.00
10030;DHT22;5055;52.054;8.524;2022-12-24T00:53:55;10.50;97.00
10030;DHT22;5055;52.054;8.524;2022-12-24T00:56:24;10.50;97.00
10030;DHT22;5055;52.054;8.524;2022-12-24T00:58:53;10.40;97.00
10030;DHT22;5055;52.054;8.524;2022-12-24T01:01:22;10.40;97.00
10030;DHT22;5055;52.054;8.524;2022-12-24T01:03:51;10.40;97.00
10030;DHT22;5055;52.054;8.524;2022-12-24T01:06:41;10.40;97.00
10030;DHT22;5055;52.054;8.524;2022-12-24T01:09:10;10.40;97.00
10030;DHT22;5055;52.054;8.524;2022-12-24T01:11:38;10.40;97.00
10030;DHT22;5055;52.054;8.524;2022-12-24T01:14:08;10.40;97.00
10030;DHT22;5055;52.054;8.524;2022-12-24T01:16:36;10.40;97.00
10030;DHT22;5055;52.054;8.524;2022-12-24T01:19:05;10.30;97.00
10030;DHT22;5055;52.054;8.524;2022-12-24T01:21:33;10.30;97.00
10030;DHT22;5055;52.054;8.524;2022-12-24T01:24:03;10.30;97.00
10030;DHT22;5055;52.054;8.524;2022-12-24T01:26:32;10.30;97.00
10030;DHT22;5055;52.054;8.524;2022-12-24T01:29:01;10.30;97.00
10030;DHT22;5055;52.054;8.524;2022-12-24T01:31:29;10.30;97.00
10030;DHT22;5055;52.054;8.524;2022-12-24T01:33:57;10.20;97.00
10030;DHT22;5055;52.054;8.524;2022-12-24T01:36:26;10.20;97.00
10030;DHT22;5055;52.054;8.524;2022-12-24T01:38:55;10.20;97.00
10030;DHT22;5055;52.054;8.524;2022-12-24T01:41:25;10.20;97.00
10030;DHT22;5055;52.054;8.524;2022-12-24T01:44:22;10.20;97.00
10030;DHT22;5055;52.054;8.524;2022-12-24T01:47:07;10.10;97.00
10030;DHT22;5055;52.054;8.524;2022-12-24T01:49:38;10.10;97.00
10030;DHT22;5055;52.054;8.524;2022-12-24T01:52:10;10.20;97.00
10030;DHT22;5055;52.054;8.524;2022-12-24T01:54:43;10.20;97.00
10030;DHT22;5055;52.054;8.524;2022-12-24T01:57:17;10.20;97.00
10030;DHT22;5055;52.054;8.524;2022-12-24T01:59:50;10.20;97.00
10030;DHT22;5055;52.054;8.524;2022-12-24T02:02:20;10.20;97.00
10030;DHT22;5055;52.054;8.524;2022-12-24T02:04:53;10.20;97.00
10030;DHT22;5055;52.054;8.524;2022-12-24T02:07:24;10.20;97.00
10030;DHT22;5055;52.054;8.524;2022-12-24T02:09:55;10.20;97.00
10030;DHT22;5055;52.054;8.524;2022-12-24T02:12:26;10.20;97.00
10030;DHT22;5055;52.054;8.524;2022-12-24T02:14:57;10.20;97.00
10030;DHT22;5055;52.054;8.524;2022-12-24T02:17:30;10.20;97.00
10030;DHT22;5055;52.054;8.524;2022-12-24T02:20:35;10.20;97.00
10030;DHT22;5055;52.054;8.524;2022-12-24T02:23:28;10.20;97.00
10030;DHT22;5055;52.054;8.524;2022-12-24T02:26:17;10.20;97.00
10030;DHT22;5055;52.054;8.524;2022-12-24T02:29:11;10.30;97.00
10030;DHT22;5055;52.054;8.524;2022-12-24T02:31:49;10.20;97.00
10030;DHT22;5055;52.054;8.524;2022-12-24T02:34:26;10.30;97.00
10030;DHT22;5055;52.054;8.524;2022-12-24T02:36:58;10.20;97.00
10030;DHT22;5055;52.054;8.524;2022-12-24T02:39:36;10.20;97.00
10030;DHT22;5055;52.054;8.524;2022-12-24T02:42:08;10.10;97.00
10030;DHT22;5055;52.054;8.524;2022-12-24T02:44:41;10.10;97.00
10030;DHT22;5055;52.054;8.524;2022-12-24T02:47:13;10.10;97.00
10030;DHT22;5055;52.054;8.524;2022-12-24T02:49:43;10.10;97.00
10030;DHT22;5055;52.054;8.524;2022-12-24T02:52:27;10.10;97.00
10030;DHT22;5055;52.054;8.524;2022-12-24T02:54:59;10.10;97.00
10030;DHT22;5055;52.054;8.524;2022-12-24T02:57:40;10.20;97.00
10030;DHT22;5055;52.054;8.524;2022-12-24T03:00:12;10.20;97.00
10030;DHT22;5055;52.054;8.524;2022-12-24T03:02:57;10.20;97.00
10030;DHT22;5055;52.054;8.524;2022-12-24T03:05:36;10.10;97.00
10030;DHT22;5055;52.054;8.524;2022-12-24T03:08:13;10.10;97.00
10030;DHT22;5055;52.054;8.524;2022-12-24T03:10:50;10.10;97.00
10030;DHT22;5055;52.054;8.524;2022-12-24T03:13:21;10.10;97.00
10030;DHT22;5055;52.054;8.524;2022-12-24T03:15:50;10.10;97.00
10030;DHT22;5055;52.054;8.524;2022-12-24T03:18:23;10.10;97.00
10030;DHT22;5055;52.054;8.524;2022-12-24T03:20:56;10.10;97.00
10030;DHT22;5055;52.054;8.524;2022-12-24T03:23:25;10.00;97.00
10030;DHT22;5055;52.054;8.524;2022-12-24T03:25:54;10.10;97.00
10030;DHT22;5055;52.054;8.524;2022-12-24T03:28:25;10.10;97.00
10030;DHT22;5055;52.054;8.524;2022-12-24T03:30:55;10.10;97.00
10030;DHT22;5055;52.054;8.524;2022-12-24T03:33:24;10.10;97.00
10030;DHT22;5055;52.054;8.524;2022-12-24T03:35:53;10.10;97.00
10030;DHT22;5055;52.054;8.524;2022-12-24T03:38:22;10.00;97.00
10030;DHT22;5055;52.054;8.524;2022-12-24T03:40:50;10.00;97.00
10030;DHT22;5055;52.054;8.524;2022-12-24T03:43:19;10.00;97.00
10030;DHT22;5055;52.054;8.524;2022-12-24T03:45:47;10.10;97.00
10030;DHT22;5055;52.054;8.524;2022-12-24T03:48:16;10.00;97.00
10030;DHT22;5055;52.054;8.524;2022-12-24T03:50:46;10.00;97.00
10030;DHT22;5055;52.054;8.524;2022-12-24T03:53:14;10.00;97.00
10030;DHT22;5055;52.054;8.524;2022-12-24T03:55:43;10.10;97.00
10030;DHT22;5055;52.054;8.524;2022-12-24T03:58:11;10.10;97.00
10030;DHT22;5055;52.054;8.524;2022-12-24T04:00:40;10.00;97.00
10030;DHT22;5055;52.054;8.524;2022-12-24T04:03:08;10.00;97.00
10030;DHT22;5055;52.054;8.524;2022-12-24T04:05:37;10.00;97.00
10030;DHT22;5055;52.054;8.524;2022-12-24T04:08:07;10.00;97.00
10030;DHT22;5055;52.054;8.524;2022-12-24T04:10:35;10.10;97.00
10030;DHT22;5055;52.054;8.524;2022-12-24T04:13:04;10.00;97.00
10030;DHT22;5055;52.054;8.524;2022-12-24T04:15:33;10.00;97.00
10030;DHT22;5055;52.054;8.524;2022-12-24T04:18:01;10.00;97.00
10030;DHT22;5055;52.054;8.524;2022-12-24T04:20:30;10.00;97.00
10030;DHT22;5055;52.054;8.524;2022-12-24T04:22:58;10.00;97.00
10030;DHT22;5055;52.054;8.524;2022-12-24T04:25:28;10.00;97.00
10030;DHT22;5055;52.054;8.524;2022-12-24T04:27:56;10.00;97.00
10030;DHT22;5055;52.054;8.524;2022-12-24T04:30:25;10.00;97.00
10030;DHT22;5055;52.054;8.524;2022-12-24T04:32:54;10.00;97.00
10030;DHT22;5055;52.054;8.524;2022-12-24T04:35:23;9.90;97.00
10030;DHT22;5055;52.054;8.524;2022-12-24T04:37:51;9.90;97.00
10030;DHT22;5055;52.054;8.524;2022-12-24T04:40:20;9.90;97.00
10030;DHT22;5055;52.054;8.524;2022-12-24T04:42:50;9.90;97.00
10030;DHT22;5055;52.054;8.524;2022-12-24T04:45:18;9.90;97.00
10030;DHT22;5055;52.054;8.524;2022-12-24T04:47:47;9.80;97.00
10030;DHT22;5055;52.054;8.524;2022-12-24T04:50:15;9.80;97.00
10030;DHT22;5055;52.054;8.524;2022-12-24T04:52:44;9.80;97.00
10030;DHT22;5055;52.054;8.524;2022-12-24T04:55:12;9.80;97.00
10030;DHT22;5055;52.054;8.524;2022-12-24T04:57:41;9.80;97.00
10030;DHT22;5055;52.054;8.524;2022-12-24T05:00:17;9.80;97.00
10030;DHT22;5055;52.054;8.524;2022-12-24T05:02:46;9.80;97.00
10030;DHT22;5055;52.054;8.524;2022-12-24T05:05:14;9.70;97.00
10030;DHT22;5055;52.054;8.524;2022-12-24T05:07:43;9.70;97.00
10030;DHT22;5055;52.054;8.524;2022-12-24T05:10:12;9.70;97.00
10030;DHT22;5055;52.054;8.524;2022-12-24T05:12:40;9.70;97.00
10030;DHT22;5055;52.054;8.524;2022-12-24T05:15:08;9.70;97.00
10030;DHT22;5055;52.054;8.524;2022-12-24T05:17:39;9.70;97.00
10030;DHT22;5055;52.054;8.524;2022-12-24T05:20:08;9.70;97.00
10030;DHT22;5055;52.054;8.524;2022-12-24T05:22:37;9.70;97.00
10030;DHT22;5055;52.054;8.524;2022-12-24T05:25:23;9.70;97.00
10030;DHT22;5055;52.054;8.524;2022-12-24T05:28:09;9.70;97.00
10030;DHT22;5055;52.054;8.524;2022-12-24T05:30:37;9.70;97.00
10030;DHT22;5055;52.054;8.524;2022-12-24T05:33:08;9.70;97.00
10030;DHT22;5055;52.054;8.524;2022-12-24T05:35:36;9.80;97.00
10030;DHT22;5055;52.054;8.524;2022-12-24T05:38:05;9.80;97.00
10030;DHT22;5055;52.054;8.524;2022-12-24T05:40:33;9.80;97.00
10030;DHT22;5055;52.054;8.524;2022-12-24T05:43:02;9.70;97.00
10030;DHT22;5055;52.054;8.524;2022-12-24T05:45:31;9.70;97.00
10030;DHT22;5055;52.054;8.524;2022-12-24T05:48:00;9.70;97.00
10030;DHT22;5055;52.054;8.524;2022-12-24T05:50:30;9.60;97.00
10030;DHT22;5055;52.054;8.524;2022-12-24T05:52:58;9.60;97.00
10030;DHT22;5055;52.054;8.524;2022-12-24T05:55:27;9.50;97.00
10030;DHT22;5055;52.054;8.524;2022-12-24T05:57:55;9.60;97.00
10030;DHT22;5055;52.054;8.524;2022-12-24T06:00:24;9.60;97.00
10030;DHT22;5055;52.054;8.524;2022-12-24T06:02:53;9.60;97.00
10030;DHT22;5055;52.054;8.524;2022-12-24T06:05:21;9.60;97.00
10030;DHT22;5055;52.054;8.524;2022-12-24T06:07:51;9.60;97.00
10030;DHT22;5055;52.054;8.524;2022-12-24T06:10:19;9.70;97.00
10030;DHT22;5055;52.054;8.524;2022-12-24T06:12:48;9.60;97.00
10030;DHT22;5055;52.054;8.524;2022-12-24T06:15:16;9.60;97.00
10030;DHT22;5055;52.054;8.524;2022-12-24T06:17:50;9.60;97.00
10030;DHT22;5055;52.054;8.524;2022-12-24T06:20:21;9.60;97.00
10030;DHT22;5055;52.054;8.524;2022-12-24T06:22:51;9.60;97.00
10030;DHT22;5055;52.054;8.524;2022-12-24T06:25:19;9.60;97.00
10030;DHT22;5055;52.054;8.524;2022-12-24T06:27:47;9.60;97.00
10030;DHT22;5055;52.054;8.524;2022-12-24T06:30:16;9.50;97.00
10030;DHT22;5055;52.054;8.524;2022-12-24T06:32:44;9.50;97.00
10030;DHT22;5055;52.054;8.524;2022-12-24T06:35:13;9.50;97.00
10030;DHT22;5055;52.054;8.524;2022-12-24T06:37:42;9.50;97.00
10030;DHT22;5055;52.054;8.524;2022-12-24T06:40:12;9.50;97.00
10030;DHT22;5055;52.054;8.524;2022-12-24T06:42:40;9.50;97.00
10030;DHT22;5055;52.054;8.524;2022-12-24T06:45:10;9.50;97.00
10030;DHT22;5055;52.054;8.524;2022-12-24T06:47:39;9.50;97.00
10030;DHT22;5055;52.054;8.524;2022-12-24T06:50:08;9.50;97.00
10030;DHT22;5055;52.054;8.524;2022-12-24T06:52:36;9.50;97.00
10030;DHT22;5055;52.054;8.524;2022-12-24T06:55:06;9.50;97.00
10030;DHT22;5055;52.054;8.524;2022-12-24T06:57:36;9.50;97.00
10030;DHT22;5055;52.054;8.524;2022-12-24T07:00:05;9.50;97.00
10030;DHT22;5055;52.054;8.524;2022-12-24T07:02:34;9.50;97.00
10030;DHT22;5055;52.054;8.524;2022-12-24T07:05:03;9.50;97.00
10030;DHT22;5055;52.054;8.524;2022-12-24T07:07:32;9.50;97.00
10030;DHT22;5055;52.054;8.524;2022-12-24T07:10:00;9.40;97.00
10030;DHT22;5055;52.054;8.524;2022-12-24T07:12:28;9.40;97.00
10030;DHT22;5055;52.054;8.524;2022-12-24T07:14:58;9.50;97.00
10030;DHT22;5055;52.054;8.524;2022-12-24T07:17:27;9.50;97.00
10030;DHT22;5055;52.054;8.524;2022-12-24T07:19:55;9.50;97.00
10030;DHT22;5055;52.054;8.524;2022-12-24T07:22:23;9.40;97.00
10030;DHT22;5055;52.054;8.524;2022-12-24T07:24:52;9.40;97.00
10030;DHT22;5055;52.054;8.524;2022-12-24T07:27:20;9.40;97.00
10030;DHT22;5055;52.054;8.524;2022-12-24T07:29:49;9.40;97.00
10030;DHT22;5055;52.054;8.524;2022-12-24T07:32:18;9.40;97.00
10030;DHT22;5055;52.054;8.524;2022-12-24T07:34:47;9.40;97.00
10030;DHT22;5055;52.054;8.524;2022-12-24T07:37:15;9.40;97.00
10030;DHT22;5055;52.054;8.524;2022-12-24T07:39:44;9.40;97.00
10030;DHT22;5055;52.054;8.524;2022-12-24T07:42:12;9.40;97.00
10030;DHT22;5055;52.054;8.524;2022-12-24T07:44:41;9.40;97.00
10030;DHT22;5055;52.054;8.524;2022-12-24T07:47:09;9.40;97.00
10030;DHT22;5055;52.054;8.524;2022-12-24T07:49:39;9.40;97.00
10030;DHT22;5055;52.054;8.524;2022-12-24T07:52:08;9.40;97.00
10030;DHT22;5055;52.054;8.524;2022-12-24T07:54:36;9.40;97.00
10030;DHT22;5055;52.054;8.524;2022-12-24T07:57:05;9.40;97.00
10030;DHT22;5055;52.054;8.524;2022-12-24T07:59:34;9.40;97.00
10030;DHT22;5055;52.054;8.524;2022-12-24T08:02:02;9.40;97.00
10030;DHT22;5055;52.054;8.524;2022-12-24T08:04:31;9.40;97.00
10030;DHT22;5055;52.054;8.524;2022-12-24T08:07:04;9.40;97.00
10030;DHT22;5055;52.054;8.524;2022-12-24T08:09:33;9.40;97.00
10030;DHT22;5055;52.054;8.524;2022-12-24T08:12:02;9.40;97.00
10030;DHT22;5055;52.054;8.524;2022-12-24T08:14:31;9.40;97.00
10030;DHT22;5055;52.054;8.524;2022-12-24T08:16:59;9.40;97.00
10030;DHT22;5055;52.054;8.524;2022-12-24T08:19:27;9.50;97.00
10030;DHT22;5055;52.054;8.524;2022-12-24T08:21:56;9.50;97.00
10030;DHT22;5055;52.054;8.524;2022-12-24T08:24:26;9.50;97.00
10030;DHT22;5055;52.054;8.524;2022-12-24T08:26:54;9.50;97.00
10030;DHT22;5055;52.054;8.524;2022-12-24T08:29:23;9.50;97.00
10030;DHT22;5055;52.054;8.524;2022-12-24T08:31:51;9.50;97.00
10030;DHT22;5055;52.054;8.524;2022-12-24T08:34:21;9.50;97.00
10030;DHT22;5055;52.054;8.524;2022-12-24T08:36:49;9.60;97.00
10030;DHT22;5055;52.054;8.524;2022-12-24T08:39:17;9.60;97.00
10030;DHT22;5055;52.054;8.524;2022-12-24T08:41:47;9.60;97.00
10030;DHT22;5055;52.054;8.524;2022-12-24T08:44:16;9.60;97.00
10030;DHT22;5055;52.054;8.524;2022-12-24T08:46:44;9.60;97.00
10030;DHT22;5055;52.054;8.524;2022-12-24T08:49:13;9.60;97.00
10030;DHT22;5055;52.054;8.524;2022-12-24T08:51:42;9.60;97.00
10030;DHT22;5055;52.054;8.524;2022-12-24T08:54:10;9.60;97.00
10030;DHT22;5055;52.054;8.524;2022-12-24T08:56:39;9.60;97.00
10030;DHT22;5055;52.054;8.524;2022-12-24T08:59:10;9.60;97.00
10030;DHT22;5055;52.054;8.524;2022-12-24T09:01:38;9.60;97.00
10030;DHT22;5055;52.054;8.524;2022-12-24T09:04:07;9.60;97.00
10030;DHT22;5055;52.054;8.524;2022-12-24T09:06:35;9.60;97.00
10030;DHT22;5055;52.054;8.524;2022-12-24T09:09:04;9.60;97.00
10030;DHT22;5055;52.054;8.524;2022-12-24T09:11:33;9.60;97.00
10030;DHT22;5055;52.054;8.524;2022-12-24T09:14:02;9.60;97.00
10030;DHT22;5055;52.054;8.524;2022-12-24T09:16:32;9.60;97.00
10030;DHT22;5055;52.054;8.524;2022-12-24T09:19:00;9.60;97.00
10030;DHT22;5055;52.054;8.524;2022-12-24T09:21:28;9.60;97.00
10030;DHT22;5055;52.054;8.524;2022-12-24T09:23:57;9.60;97.00
10030;DHT22;5055;52.054;8.524;2022-12-24T09:26:27;9.60;97.00
10030;DHT22;5055;52.054;8.524;2022-12-24T09:28:58;9.60;97.00
10030;DHT22;5055;52.054;8.524;2022-12-24T09:31:28;9.70;97.00
10030;DHT22;5055;52.054;8.524;2022-12-24T09:33:58;9.70;97.00
10030;DHT22;5055;52.054;8.524;2022-12-24T09:36:26;9.70;97.00
10030;DHT22;5055;52.054;8.524;2022-12-24T09:38:55;9.80;97.00
10030;DHT22;5055;52.054;8.524;2022-12-24T09:41:33;9.80;97.00
10030;DHT22;5055;52.054;8.524;2022-12-24T09:44:16;9.80;97.00
10030;DHT22;5055;52.054;8.524;2022-12-24T09:46:48;9.80;97.00
10030;DHT22;5055;52.054;8.524;2022-12-24T09:49:22;9.90;97.00
10030;DHT22;5055;52.054;8.524;2022-12-24T09:51:55;9.90;97.00
10030;DHT22;5055;52.054;8.524;2022-12-24T09:54:30;9.90;97.00
10030;DHT22;5055;52.054;8.524;2022-12-24T09:57:03;9.90;97.00
10030;DHT22;5055;52.054;8.524;2022-12-24T09:59:40;9.90;97.00
10030;DHT22;5055;52.054;8.524;2022-12-24T10:02:12;10.00;97.00
10030;DHT22;5055;52.054;8.524;2022-12-24T10:04:43;10.00;97.00
10030;DHT22;5055;52.054;8.524;2022-12-24T10:07:23;10.10;97.00
10030;DHT22;5055;52.054;8.524;2022-12-24T10:10:02;10.10;97.00
10030;DHT22;5055;52.054;8.524;2022-12-24T10:12:38;10.10;97.00
10030;DHT22;5055;52.054;8.524;2022-12-24T10:15:21;10.10;97.00
10030;DHT22;5055;52.054;8.524;2022-12-24T10:18:01;10.20;97.00
10030;DHT22;5055;52.054;8.524;2022-12-24T10:20:41;10.20;97.00
10030;DHT22;5055;52.054;8.524;2022-12-24T10:23:19;10.20;97.00
10030;DHT22;5055;52.054;8.524;2022-12-24T10:25:53;10.30;97.00
10030;DHT22;5055;52.054;8.524;2022-12-24T10:28:31;10.30;97.00
10030;DHT22;5055;52.054;8.524;2022-12-24T10:31:04;10.30;97.00
10030;DHT22;5055;52.054;8.524;2022-12-24T10:33:38;10.30;97.00
10030;DHT22;5055;52.054;8.524;2022-12-24T10:36:11;10.30;97.00
10030;DHT22;5055;52.054;8.524;2022-12-24T10:38:44;10.30;97.00
10030;DHT22;5055;52.054;8.524;2022-12-24T10:41:14;10.30;97.00
10030;DHT22;5055;52.054;8.524;2022-12-24T10:43:44;10.40;97.00
10030;DHT22;5055;52.054;8.524;2022-12-24T10:46:17;10.40;97.00
10030;DHT22;5055;52.054;8.524;2022-12-24T10:48:51;10.40;97.00
10030;DHT22;5055;52.054;8.524;2022-12-24T10:51:29;10.40;97.00
10030;DHT22;5055;52.054;8.524;2022-12-24T10:54:05;10.40;97.00
10030;DHT22;5055;52.054;8.524;2022-12-24T10:56:40;10.40;97.00
10030;DHT22;5055;52.054;8.524;2022-12-24T10:59:23;10.40;97.00
10030;DHT22;5055;52.054;8.524;2022-12-24T11:01:54;10.50;97.00
10030;DHT22;5055;52.054;8.524;2022-12-24T11:04:26;10.50;97.00
10030;DHT22;5055;52.054;8.524;2022-12-24T11:06:59;10.50;97.00
10030;DHT22;5055;52.054;8.524;2022-12-24T11:09:30;10.50;97.00
10030;DHT22;5055;52.054;8.524;2022-12-24T11:12:03;10.40;97.00
10030;DHT22;5055;52.054;8.524;2022-12-24T11:14:36;10.50;97.00
10030;DHT22;5055;52.054;8.524;2022-12-24T11:17:06;10.40;97.00
10030;DHT22;5055;52.054;8.524;2022-12-24T11:19:37;10.40;97.00
10030;DHT22;5055;52.054;8.524;2022-12-24T11:22:17;10.40;97.00
10030;DHT22;5055;52.054;8.524;2022-12-24T11:24:56;10.50;97.00
10030;DHT22;5055;52.054;8.524;2022-12-24T11:27:38;10.50;97.00
10030;DHT22;5055;52.054;8.524;2022-12-24T11:30:23;10.60;97.00
10030;DHT22;5055;52.054;8.524;2022-12-24T11:33:17;10.70;97.00
10030;DHT22;5055;52.054;8.524;2022-12-24T11:35:50;10.80;97.00
10030;DHT22;5055;52.054;8.524;2022-12-24T11:38:25;10.90;97.00
10030;DHT22;5055;52.054;8.524;2022-12-24T11:40:59;10.90;97.00
10030;DHT22;5055;52.054;8.524;2022-12-24T11:43:35;11.00;97.00
10030;DHT22;5055;52.054;8.524;2022-12-24T11:46:36;11.10;97.00
10030;DHT22;5055;52.054;8.524;2022-12-24T11:49:14;11.10;97.00
10030;DHT22;5055;52.054;8.524;2022-12-24T11:52:13;11.10;97.00
10030;DHT22;5055;52.054;8.524;2022-12-24T11:54:56;11.10;97.00
10030;DHT22;5055;52.054;8.524;2022-12-24T11:57:36;11.00;97.00
10030;DHT22;5055;52.054;8.524;2022-12-24T12:00:10;11.00;97.00
10030;DHT22;5055;52.054;8.524;2022-12-24T12:02:41;11.00;97.00
10030;DHT22;5055;52.054;8.524;2022-12-24T12:05:16;11.00;97.00
10030;DHT22;5055;52.054;8.524;2022-12-24T12:07:47;11.00;97.00
10030;DHT22;5055;52.054;8.524;2022-12-24T12:10:22;11.00;97.00
10030;DHT22;5055;52.054;8.524;2022-12-24T12:12:57;11.00;97.00
10030;DHT22;5055;52.054;8.524;2022-12-24T12:15:31;11.00;97.00
10030;DHT22;5055;52.054;8.524;2022-12-24T12:18:06;10.90;97.00
10030;DHT22;5055;52.054;8.524;2022-12-24T12:20:38;10.90;97.00
10030;DHT22;5055;52.054;8.524;2022-12-24T12:23:14;10.90;97.00
10030;DHT22;5055;52.054;8.524;2022-12-24T12:25:49;10.90;97.00
10030;DHT22;5055;52.054;8.524;2022-12-24T12:28:21;10.90;97.00
10030;DHT22;5055;52.054;8.524;2022-12-24T12:30:58;10.90;97.00
10030;DHT22;5055;52.054;8.524;2022-12-24T12:33:32;10.90;97.00
10030;DHT22;5055;52.054;8.524;2022-12-24T12:36:03;11.00;97.00
10030;DHT22;5055;52.054;8.524;2022-12-24T12:38:32;11.00;97.00
10030;DHT22;5055;52.054;8.524;2022-12-24T12:41:13;11.00;97.00
10030;DHT22;5055;52.054;8.524;2022-12-24T12:44:07;11.00;97.00
10030;DHT22;5055;52.054;8.524;2022-12-24T12:46:49;11.00;97.00
10030;DHT22;5055;52.054;8.524;2022-12-24T12:49:27;10.90;97.00
10030;DHT22;5055;52.054;8.524;2022-12-24T12:52:06;10.90;97.00
10030;DHT22;5055;52.054;8.524;2022-12-24T12:54:50;10.90;97.00
10030;DHT22;5055;52.054;8.524;2022-12-24T12:57:25;10.90;97.00
10030;DHT22;5055;52.054;8.524;2022-12-24T13:00:00;10.90;97.00
10030;DHT22;5055;52.054;8.524;2022-12-24T13:02:55;10.90;97.00
10030;DHT22;5055;52.054;8.524;2022-12-24T13:05:59;10.80;97.00
10030;DHT22;5055;52.054;8.524;2022-12-24T13:11:59;10.90;97.00
10030;DHT22;5055;52.054;8.524;2022-12-24T13:17:38;10.90;97.00
10030;DHT22;5055;52.054;8.524;2022-12-24T13:20:17;10.90;97.00
10030;DHT22;5055;52.054;8.524;2022-12-24T13:22:53;10.80;97.00
10030;DHT22;5055;52.054;8.524;2022-12-24T13:25:30;10.80;97.00
10030;DHT22;5055;52.054;8.524;2022-12-24T13:28:14;10.80;97.00
10030;DHT22;5055;52.054;8.524;2022-12-24T13:30:46;10.70;97.00
10030;DHT22;5055;52.054;8.524;2022-12-24T13:33:45;10.70;97.00
10030;DHT22;5055;52.054;8.524;2022-12-24T13:36:16;10.70;97.00
10030;DHT22;5055;52.054;8.524;2022-12-24T13:38:46;10.80;97.00
10030;DHT22;5055;52.054;8.524;2022-12-24T13:44:30;10.80;97.00
10030;DHT22;5055;52.054;8.524;2022-12-24T13:47:21;10.80;97.00
10030;DHT22;5055;52.054;8.524;2022-12-24T13:50:16;10.80;97.00
10030;DHT22;5055;52.054;8.524;2022-12-24T13:52:51;10.70;97.00
10030;DHT22;5055;52.054;8.524;2022-12-24T13:55:21;10.70;97.00
10030;DHT22;5055;52.054;8.524;2022-12-24T13:57:56;10.70;97.00
10030;DHT22;5055;52.054;8.524;2022-12-24T14:00:31;10.70;97.00
10030;DHT22;5055;52.054;8.524;2022-12-24T14:03:06;10.60;97.00
10030;DHT22;5055;52.054;8.524;2022-12-24T14:05:46;10.70;97.00
10030;DHT22;5055;52.054;8.524;2022-12-24T14:11:14;10.70;97.00
10030;DHT22;5055;52.054;8.524;2022-12-24T14:14:24;10.70;97.00
10030;DHT22;5055;52.054;8.524;2022-12-24T14:16:55;10.80;97.00
10030;DHT22;5055;52.054;8.524;2022-12-24T14:19:29;10.80;97.00
10030;DHT22;5055;52.054;8.524;2022-12-24T14:22:16;10.90;97.00
10030;DHT22;5055;52.054;8.524;2022-12-24T14:24:52;10.80;97.00
10030;DHT22;5055;52.054;8.524;2022-12-24T14:27:27;10.80;97.00
10030;DHT22;5055;52.054;8.524;2022-12-24T14:30:02;10.80;97.00
10030;DHT22;5055;52.054;8.524;2022-12-24T14:32:35;10.80;97.00
10030;DHT22;5055;52.054;8.524;2022-12-24T14:35:10;10.70;97.00
10030;DHT22;5055;52.054;8.524;2022-12-24T14:37:44;10.70;97.00
10030;DHT22;5055;52.054;8.524;2022-12-24T14:40:16;10.70;97.00
10030;DHT22;5055;52.054;8.524;2022-12-24T14:42:52;10.70;97.00
10030;DHT22;5055;52.054;8.524;2022-12-24T14:45:28;10.60;97.00
10030;DHT22;5055;52.054;8.524;2022-12-24T14:48:07;10.60;97.00
10030;DHT22;5055;52.054;8.524;2022-12-24T14:50:56;10.60;97.00
10030;DHT22;5055;52.054;8.524;2022-12-24T14:53:39;10.60;97.00
10030;DHT22;5055;52.054;8.524;2022-12-24T14:56:18;10.50;97.00
10030;DHT22;5055;52.054;8.524;2022-12-24T14:58:47;10.60;97.00
10030;DHT22;5055;52.054;8.524;2022-12-24T15:01:21;10.50;97.00
10030;DHT22;5055;52.054;8.524;2022-12-24T15:04:03;10.50;97.00
10030;DHT22;5055;52.054;8.524;2022-12-24T15:06:35;10.50;97.00
10030;DHT22;5055;52.054;8.524;2022-12-24T15:09:04;10.50;97.00
10030;DHT22;5055;52.054;8.524;2022-12-24T15:11:33;10.50;97.00
10030;DHT22;5055;52.054;8.524;2022-12-24T15:14:02;10.50;97.00
10030;DHT22;5055;52.054;8.524;2022-12-24T15:16:32;10.50;97.00
10030;DHT22;5055;52.054;8.524;2022-12-24T15:19:04;10.50;97.00
10030;DHT22;5055;52.054;8.524;2022-12-24T15:21:36;10.50;97.00
10030;DHT22;5055;52.054;8.524;2022-12-24T15:24:23;10.50;97.00
10030;DHT22;5055;52.054;8.524;2022-12-24T15:26:51;10.50;97.00
10030;DHT22;5055;52.054;8.524;2022-12-24T15:29:22;10.50;97.00
10030;DHT22;5055;52.054;8.524;2022-12-24T15:31:52;10.50;97.00
10030;DHT22;5055;52.054;8.524;2022-12-24T15:34:30;10.40;97.00
10030;DHT22;5055;52.054;8.524;2022-12-24T15:37:10;10.30;97.00
10030;DHT22;5055;52.054;8.524;2022-12-24T15:39:39;10.30;97.00
10030;DHT22;5055;52.054;8.524;2022-12-24T15:42:09;10.30;97.00
10030;DHT22;5055;52.054;8.524;2022-12-24T15:44:45;10.20;97.00
10030;DHT22;5055;52.054;8.524;2022-12-24T15:47:18;10.20;97.00
10030;DHT22;5055;52.054;8.524;2022-12-24T15:49:49;10.10;97.00
10030;DHT22;5055;52.054;8.524;2022-12-24T15:52:22;10.10;97.00
10030;DHT22;5055;52.054;8.524;2022-12-24T15:54:52;10.00;97.00
10030;DHT22;5055;52.054;8.524;2022-12-24T15:57:29;10.00;97.00
10030;DHT22;5055;52.054;8.524;2022-12-24T16:00:00;9.90;97.00
10030;DHT22;5055;52.054;8.524;2022-12-24T16:02:38;9.90;97.00
10030;DHT22;5055;52.054;8.524;2022-12-24T16:05:40;9.90;97.00
10030;DHT22;5055;52.054;8.524;2022-12-24T16:08:25;9.80;97.00
10030;DHT22;5055;52.054;8.524;2022-12-24T16:11:12;9.70;97.00
10030;DHT22;5055;52.054;8.524;2022-12-24T16:13:50;9.70;97.00
10030;DHT22;5055;52.054;8.524;2022-12-24T16:16:28;9.60;97.00
10030;DHT22;5055;52.054;8.524;2022-12-24T16:18:59;9.60;97.00
10030;DHT22;5055;52.054;8.524;2022-12-24T16:21:30;9.50;97.00
10030;DHT22;5055;52.054;8.524;2022-12-24T16:24:05;9.50;97.00
10030;DHT22;5055;52.054;8.524;2022-12-24T16:26:34;9.50;97.00
10030;DHT22;5055;52.054;8.524;2022-12-24T16:29:04;9.50;97.00
10030;DHT22;5055;52.054;8.524;2022-12-24T16:31:35;9.50;97.00
10030;DHT22;5055;52.054;8.524;2022-12-24T16:34:04;9.50;97.00
10030;DHT22;5055;52.054;8.524;2022-12-24T16:36:33;9.50;97.00
10030;DHT22;5055;52.054;8.524;2022-12-24T16:39:03;9.50;97.00
10030;DHT22;5055;52.054;8.524;2022-12-24T16:41:49;9.50;97.00